Main page
METAR-TAF:

METAR-TAF

Airports :

Huesca–Pirineos Airport

Huesca, Spain

latitude: 42-04-32N, longitude: 0-18-58W, elevation: 539 m

Current weather observation

The report was made 40 minutes ago, at 10:30 UTC
Wind 15 kt from the West, varying between Southwest and West/Northwest
Temperature 14°C
Humidity 58%
Pressure 1022 hPa
Visibility 10 km or more
Few clouds at a height of 3700 ft

METAR: LEHC 261030Z 27015KT 220V290 9999 FEW037 14/06 Q1022

Time: 13:10 (11:10 UTC)

Forecast

The report was made 3 hours and 10 minutes ago, at 08:00 UTC
Forecast valid from 26 at 09 UTC to 27 at 09 UTC
Wind 16 kt from the West/Northwest with gusts up to 26 kt
Visibility 10 km or more
Few clouds at a height of 4000 ft
Becoming
from 26 at 17 UTC to 26 at 19 UTC
Wind 7 kt from the West/Northwest

TAF: LEHC 260800Z 2609/2709 29016G26KT 9999 FEW040 TX15/2614Z TN05/2706Z BECMG 2617/2619 30007KT

Weather observations and forecasts of more than 4000 airports (METAR and TAF reports).

The available stations are represented by yellow and red dots on the map.

Hover mouse over dot to see the name of the station.

Then click to see weather observations and forecasts.

To change the map : click on the green buttons with a black cross to zoom in, on the green button with a dash to zoom out, or on the green arrows for adjacent maps.


METAR-TAF: